createdAt,value
2019-02-20T00:02:35.759Z,15.70
2019-02-20T00:05:40.944Z,15.83
2019-02-20T00:08:46.091Z,17.87
2019-02-20T00:11:51.388Z,16.23
2019-02-20T00:14:56.520Z,22.33
2019-02-20T00:18:01.703Z,28.60
2019-02-20T00:21:06.874Z,26.83
2019-02-20T00:24:12.128Z,24.27
2019-02-20T00:27:17.326Z,28.67
2019-02-20T00:30:22.533Z,31.03
2019-02-20T00:33:27.670Z,20.83
2019-02-20T00:36:32.903Z,18.40
2019-02-20T00:39:38.110Z,19.63
2019-02-20T00:42:43.455Z,29.47
2019-02-20T00:45:58.232Z,22.60
2019-02-20T00:49:11.125Z,25.20
2019-02-20T00:52:26.184Z,17.97
2019-02-20T00:55:32.309Z,22.90
2019-02-20T00:58:37.451Z,19.07
2019-02-20T01:01:42.732Z,20.97
2019-02-20T01:04:47.859Z,21.83
2019-02-20T01:07:54.085Z,18.80
2019-02-20T01:10:59.226Z,19.30
2019-02-20T01:14:04.570Z,17.43
2019-02-20T01:17:09.731Z,18.83
2019-02-20T01:20:14.924Z,24.60
2019-02-20T01:23:20.129Z,26.27
2019-02-20T01:26:25.313Z,24.53
2019-02-20T01:29:30.463Z,25.13
2019-02-20T01:32:35.591Z,31.03
2019-02-20T01:35:40.793Z,24.33
2019-02-20T01:38:45.982Z,29.47
2019-02-20T01:41:51.194Z,24.33
2019-02-20T01:44:56.363Z,20.07
2019-02-20T01:48:01.503Z,20.17
2019-02-20T01:51:06.815Z,22.50
2019-02-20T01:54:11.907Z,20.20
2019-02-20T01:57:17.078Z,21.80
2019-02-20T02:00:22.218Z,21.63
2019-02-20T02:03:27.345Z,20.83
2019-02-20T02:06:32.503Z,23.93
2019-02-20T02:09:37.694Z,22.77
2019-02-20T02:12:42.889Z,23.10
2019-02-20T02:15:48.061Z,20.27
2019-02-20T02:19:00.148Z,22.40
2019-02-20T02:22:05.349Z,27.13
2019-02-20T02:25:10.613Z,23.50
2019-02-20T02:28:15.708Z,23.37
2019-02-20T02:31:20.822Z,21.07
2019-02-20T02:34:27.045Z,30.83
2019-02-20T02:37:32.242Z,20.83
2019-02-20T02:40:37.458Z,19.83
2019-02-20T02:43:42.536Z,25.50
2019-02-20T02:46:47.754Z,20.20
2019-02-20T02:49:52.899Z,17.60
2019-02-20T02:52:58.039Z,17.90
2019-02-20T02:56:03.257Z,19.73
2019-02-20T02:59:08.484Z,17.97
2019-02-20T03:02:13.657Z,15.43
2019-02-20T03:05:18.811Z,15.83
2019-02-20T03:08:24.024Z,16.97
2019-02-20T03:11:29.220Z,15.87
2019-02-20T03:14:34.361Z,14.80
2019-02-20T03:17:39.529Z,16.93
2019-02-20T03:20:44.660Z,13.40
2019-02-20T03:23:49.820Z,14.27
2019-02-20T03:26:54.960Z,13.23
2019-02-20T03:30:00.466Z,13.37
2019-02-20T03:33:07.530Z,15.33
2019-02-20T03:36:12.665Z,15.10
2019-02-20T03:39:17.833Z,13.00
2019-02-20T03:42:23.016Z,12.70
2019-02-20T03:45:28.194Z,12.67
2019-02-20T03:48:33.559Z,14.93
2019-02-20T03:51:38.666Z,13.47
2019-02-20T03:54:43.781Z,12.50
2019-02-20T03:57:48.953Z,12.37
2019-02-20T04:00:54.071Z,13.70
2019-02-20T04:03:59.222Z,12.10
2019-02-20T04:07:04.332Z,11.63
2019-02-20T04:10:09.476Z,12.77
2019-02-20T04:13:14.671Z,13.00
2019-02-20T04:16:19.905Z,14.10
2019-02-20T04:19:25.082Z,13.33
2019-02-20T04:22:30.238Z,10.50
2019-02-20T04:25:35.358Z,10.90
2019-02-20T04:28:40.536Z,10.60
2019-02-20T04:31:45.709Z,11.07
2019-02-20T04:34:51.934Z,11.40
2019-02-20T04:37:57.075Z,10.37
2019-02-20T04:41:02.317Z,10.33
2019-02-20T04:44:07.537Z,12.80
2019-02-20T04:47:12.760Z,13.30
2019-02-20T04:50:18.970Z,14.10
2019-02-20T04:53:24.207Z,12.90
2019-02-20T04:56:30.454Z,11.67
2019-02-20T04:59:35.579Z,12.30
2019-02-20T05:02:40.767Z,11.57
2019-02-20T05:05:45.981Z,13.60
2019-02-20T05:08:51.139Z,12.57
2019-02-20T05:11:56.340Z,12.03
2019-02-20T05:15:01.492Z,14.83
2019-02-20T05:18:06.696Z,11.90
2019-02-20T05:21:11.845Z,11.93
2019-02-20T05:24:24.534Z,10.20
2019-02-20T05:27:23.954Z,10.47
2019-02-20T05:30:29.108Z,10.07
2019-02-20T05:33:34.443Z,10.30
2019-02-20T05:36:39.649Z,11.10
2019-02-20T05:39:44.869Z,11.27
2019-02-20T05:42:50.047Z,12.30
2019-02-20T05:45:55.259Z,12.20
2019-02-20T05:49:00.611Z,13.47
2019-02-20T05:52:05.861Z,13.80
2019-02-20T05:55:11.036Z,14.60
2019-02-20T05:58:16.145Z,12.57
2019-02-20T06:01:21.354Z,13.10
2019-02-20T06:04:27.560Z,13.20
2019-02-20T06:07:32.758Z,15.70
2019-02-20T06:10:37.896Z,16.50
2019-02-20T06:13:43.073Z,13.23
2019-02-20T06:16:48.171Z,13.90
2019-02-20T06:19:56.400Z,15.57
2019-02-20T06:23:01.569Z,15.87
2019-02-20T06:26:06.729Z,19.33
2019-02-20T06:29:13.001Z,19.97
2019-02-20T06:32:18.219Z,20.53
2019-02-20T06:35:23.413Z,21.30
2019-02-20T06:38:28.535Z,24.70
2019-02-20T06:41:39.151Z,25.83
2019-02-20T06:44:40.600Z,20.30
2019-02-20T06:47:45.796Z,19.50
2019-02-20T06:50:50.920Z,15.93
2019-02-20T06:53:56.066Z,13.67
2019-02-20T06:57:01.269Z,14.13
2019-02-20T07:00:07.140Z,12.87
2019-02-20T07:03:12.309Z,15.20
2019-02-20T07:06:43.350Z,16.80
2019-02-20T07:10:40.887Z,17.30
2019-02-20T07:14:17.103Z,16.57
2019-02-20T07:17:51.470Z,20.17
2019-02-20T07:21:52.902Z,17.47
2019-02-20T07:25:14.003Z,18.60
2019-02-20T07:28:52.291Z,18.43
2019-02-20T07:31:57.431Z,25.13
2019-02-20T07:35:02.564Z,19.00
2019-02-20T07:38:07.776Z,19.23
2019-02-20T07:41:12.980Z,17.37
2019-02-20T07:44:18.098Z,19.83
2019-02-20T07:47:23.227Z,18.67
2019-02-20T07:50:28.426Z,22.33
2019-02-20T07:53:33.539Z,18.23
2019-02-20T07:56:38.682Z,17.67
2019-02-20T07:59:43.828Z,15.23
2019-02-20T08:02:48.939Z,16.67
2019-02-20T08:05:54.149Z,18.07
2019-02-20T08:08:59.713Z,16.87
2019-02-20T08:12:04.870Z,15.37
2019-02-20T08:15:11.631Z,12.90
2019-02-20T08:18:16.735Z,13.93
2019-02-20T08:21:21.890Z,14.90
2019-02-20T08:24:26.986Z,15.40
2019-02-20T08:27:32.144Z,18.37
2019-02-20T08:30:37.274Z,16.97
2019-02-20T08:33:42.452Z,15.43
2019-02-20T08:36:47.574Z,15.00
2019-02-20T08:39:52.789Z,15.60
2019-02-20T08:42:57.956Z,15.63
2019-02-20T08:46:03.113Z,13.63
2019-02-20T08:49:08.226Z,14.97
2019-02-20T08:52:13.374Z,16.00
2019-02-20T08:55:19.018Z,14.50
2019-02-20T08:58:24.429Z,14.77
2019-02-20T09:01:29.615Z,15.00
2019-02-20T09:04:34.763Z,16.77
2019-02-20T09:07:39.934Z,15.93
2019-02-20T09:10:45.055Z,17.27
2019-02-20T09:13:50.221Z,15.73
2019-02-20T09:16:55.390Z,16.17
2019-02-20T09:20:00.546Z,18.60
2019-02-20T09:23:05.788Z,15.77
2019-02-20T09:26:11.019Z,16.80
2019-02-20T09:29:16.172Z,15.33
2019-02-20T09:32:21.351Z,16.27
2019-02-20T09:35:26.605Z,16.57
2019-02-20T09:38:31.709Z,17.27
2019-02-20T09:41:36.873Z,16.63
2019-02-20T09:44:49.467Z,15.40
2019-02-20T09:47:54.645Z,14.60
2019-02-20T09:50:59.869Z,13.20
2019-02-20T09:54:05.046Z,13.50
2019-02-20T09:57:10.196Z,12.77
2019-02-20T10:00:16.005Z,11.80
2019-02-20T10:03:21.210Z,11.97
2019-02-20T10:06:26.368Z,11.70
2019-02-20T10:09:31.547Z,11.90
2019-02-20T10:12:36.754Z,11.43
2019-02-20T10:15:42.021Z,12.77
2019-02-20T10:18:47.205Z,13.67
2019-02-20T10:21:53.438Z,33.17
2019-02-20T10:24:58.598Z,18.53
2019-02-20T10:28:03.766Z,12.90
2019-02-20T10:31:08.980Z,13.83
2019-02-20T10:34:14.273Z,13.83
2019-02-20T10:37:19.502Z,13.20
2019-02-20T10:40:24.772Z,14.37
2019-02-20T10:43:30.015Z,13.67
2019-02-20T10:46:35.173Z,14.50
2019-02-20T10:49:40.348Z,14.63
2019-02-20T10:52:45.509Z,14.33
2019-02-20T10:55:50.687Z,12.37
2019-02-20T10:58:55.805Z,12.73
2019-02-20T11:02:00.989Z,12.27
2019-02-20T11:05:07.433Z,13.03
2019-02-20T11:08:12.663Z,13.13
2019-02-20T11:11:17.825Z,13.57
2019-02-20T11:14:23.054Z,12.57
2019-02-20T11:17:29.362Z,11.27
2019-02-20T11:20:34.575Z,9.50
2019-02-20T11:23:39.786Z,11.73
2019-02-20T11:26:53.181Z,11.87
2019-02-20T11:29:51.763Z,9.67
2019-02-20T11:32:56.901Z,8.63
2019-02-20T11:36:02.054Z,8.73
2019-02-20T11:39:07.528Z,10.40
2019-02-20T11:42:13.786Z,8.93
2019-02-20T11:45:19.024Z,10.00
2019-02-20T11:48:24.287Z,11.37
2019-02-20T11:51:29.466Z,9.90
2019-02-20T11:54:34.627Z,10.90
2019-02-20T11:57:39.901Z,9.70
2019-02-20T12:00:45.035Z,9.47
2019-02-20T12:03:50.185Z,9.03
2019-02-20T12:06:55.371Z,7.97
2019-02-20T12:10:00.507Z,9.53
2019-02-20T12:13:05.748Z,9.23
2019-02-20T12:16:10.879Z,10.37
2019-02-20T12:19:16.003Z,9.30
2019-02-20T12:22:21.181Z,9.67
2019-02-20T12:25:26.343Z,8.70
2019-02-20T12:28:31.556Z,8.90
2019-02-20T12:31:37.814Z,8.90
2019-02-20T12:34:44.088Z,7.47
2019-02-20T12:37:49.327Z,9.10
2019-02-20T12:40:54.520Z,8.77
2019-02-20T12:43:59.732Z,5.67
2019-02-20T12:47:04.868Z,6.00
2019-02-20T12:50:10.301Z,6.73
2019-02-20T12:53:15.464Z,6.40
2019-02-20T12:56:20.713Z,5.87
2019-02-20T12:59:25.864Z,5.90
2019-02-20T13:02:31.087Z,6.13
2019-02-20T13:05:36.374Z,5.73
2019-02-20T13:08:41.573Z,5.57
2019-02-20T13:11:46.683Z,6.03
2019-02-20T13:14:51.875Z,5.67
2019-02-20T13:17:57.032Z,6.27
2019-02-20T13:21:02.411Z,4.50
2019-02-20T13:24:07.577Z,4.27
2019-02-20T13:27:12.748Z,4.33
2019-02-20T13:30:17.898Z,4.80
2019-02-20T13:33:23.145Z,4.37
2019-02-20T13:36:28.369Z,4.20
2019-02-20T13:39:33.576Z,4.07
2019-02-20T13:42:38.735Z,3.60
2019-02-20T13:45:43.968Z,3.83
2019-02-20T13:48:49.061Z,3.77
2019-02-20T13:51:54.261Z,4.57
2019-02-20T13:54:59.383Z,3.70
2019-02-20T13:58:05.628Z,3.93
2019-02-20T14:01:10.801Z,4.37
2019-02-20T14:04:15.966Z,4.20
2019-02-20T14:07:21.116Z,4.27
2019-02-20T14:10:26.301Z,3.93
2019-02-20T14:13:31.517Z,4.20
2019-02-20T14:16:36.674Z,3.87
2019-02-20T14:19:41.828Z,4.37
2019-02-20T14:22:47.017Z,4.20
2019-02-20T14:25:52.160Z,4.33
2019-02-20T14:28:57.331Z,4.37
2019-02-20T14:32:02.501Z,4.80
2019-02-20T14:35:08.277Z,4.07
2019-02-20T14:38:13.836Z,4.67
2019-02-20T14:41:21.399Z,4.97
2019-02-20T14:44:26.655Z,4.30
2019-02-20T14:47:32.189Z,4.20
2019-02-20T14:50:37.410Z,4.30
2019-02-20T14:53:42.531Z,4.80
2019-02-20T14:56:47.702Z,4.37
2019-02-20T14:59:52.822Z,5.17
2019-02-20T15:02:58.200Z,4.53
2019-02-20T15:06:03.380Z,3.93
2019-02-20T15:09:08.481Z,4.83
2019-02-20T15:12:15.258Z,3.70
2019-02-20T15:15:20.432Z,4.03
2019-02-20T15:18:25.669Z,5.23
2019-02-20T15:21:30.912Z,3.60
2019-02-20T15:24:36.034Z,3.47
2019-02-20T15:27:41.190Z,3.37
2019-02-20T15:30:46.310Z,3.70
2019-02-20T15:33:51.496Z,3.47
2019-02-20T15:36:56.701Z,3.53
2019-02-20T15:40:01.833Z,3.20
2019-02-20T15:43:07.360Z,4.00
2019-02-20T15:46:13.072Z,3.07
2019-02-20T15:49:18.202Z,3.10
2019-02-20T15:52:23.364Z,3.47
2019-02-20T15:55:28.760Z,3.03
2019-02-20T15:58:33.949Z,3.70
2019-02-20T16:01:39.062Z,4.70
2019-02-20T16:04:45.453Z,4.43
2019-02-20T16:07:50.520Z,3.80
2019-02-20T16:10:55.672Z,4.13
2019-02-20T16:14:00.796Z,3.37
2019-02-20T16:17:06.013Z,4.67
2019-02-20T16:20:11.883Z,4.80
2019-02-20T16:23:18.384Z,3.33
2019-02-20T16:26:23.554Z,3.37
2019-02-20T16:29:28.664Z,2.77
2019-02-20T16:32:33.847Z,2.87
2019-02-20T16:35:39.008Z,2.70
2019-02-20T16:38:44.198Z,2.50
2019-02-20T16:41:49.397Z,2.30
2019-02-20T16:44:54.585Z,2.20
2019-02-20T16:47:59.752Z,2.27
2019-02-20T16:51:04.946Z,2.40
2019-02-20T16:54:10.113Z,2.23
2019-02-20T16:57:15.307Z,2.37
2019-02-20T17:00:21.558Z,2.20
2019-02-20T17:03:27.071Z,2.53
2019-02-20T17:06:32.404Z,5.37
2019-02-20T17:09:37.578Z,12.10
2019-02-20T17:12:43.059Z,2.87
2019-02-20T17:15:48.654Z,8.00
2019-02-20T17:18:53.815Z,16.70
2019-02-20T17:21:58.946Z,44.53
2019-02-20T17:25:04.264Z,29.53
2019-02-20T17:28:09.403Z,3.60
2019-02-20T17:31:14.569Z,8.27
2019-02-20T17:34:19.728Z,3.33
2019-02-20T17:37:24.917Z,2.87
2019-02-20T17:40:30.079Z,2.60
2019-02-20T17:43:35.247Z,7.50
2019-02-20T17:46:40.383Z,6.10
2019-02-20T17:49:45.563Z,15.70
2019-02-20T17:52:50.687Z,7.03
2019-02-20T17:55:55.884Z,14.87
2019-02-20T17:59:01.018Z,17.43
2019-02-20T18:02:06.592Z,14.60
2019-02-20T18:05:13.671Z,12.37
2019-02-20T18:08:18.682Z,7.47
2019-02-20T18:11:23.809Z,10.83
2019-02-20T18:14:30.015Z,5.03
2019-02-20T18:17:35.211Z,8.53
2019-02-20T18:20:40.407Z,9.23
2019-02-20T18:23:45.774Z,5.57
2019-02-20T18:26:51.027Z,7.23
2019-02-20T18:29:56.203Z,7.43
2019-02-20T18:33:01.453Z,7.70
2019-02-20T18:36:06.823Z,10.13
2019-02-20T18:39:12.095Z,8.10
2019-02-20T18:42:17.669Z,8.83
2019-02-20T18:45:23.920Z,7.63
2019-02-20T18:48:29.066Z,6.60
2019-02-20T18:51:35.296Z,7.30
2019-02-20T18:54:40.517Z,6.57
2019-02-20T18:57:45.658Z,8.33
2019-02-20T19:00:50.817Z,5.33
2019-02-20T19:03:56.743Z,11.07
2019-02-20T19:07:12.660Z,8.00
2019-02-20T19:10:37.031Z,12.67
2019-02-20T19:14:15.981Z,9.53
2019-02-20T19:18:08.009Z,8.70
2019-02-20T19:21:51.305Z,13.80
2019-02-20T19:25:45.546Z,12.00
2019-02-20T19:29:27.745Z,15.03
2019-02-20T19:32:50.870Z,19.13
2019-02-20T19:37:04.848Z,9.60
2019-02-20T19:40:36.127Z,12.07
2019-02-20T19:44:18.529Z,10.40
2019-02-20T19:47:45.374Z,8.20
2019-02-20T19:51:14.861Z,7.70
2019-02-20T19:54:36.502Z,7.80
2019-02-20T19:58:17.564Z,5.97
2019-02-20T20:02:27.747Z,8.10
2019-02-20T20:06:13.261Z,7.17
2019-02-20T20:09:47.026Z,7.30
2019-02-20T20:13:32.080Z,8.70
2019-02-20T20:17:00.376Z,9.60
2019-02-20T20:20:20.336Z,9.83
2019-02-20T20:23:53.037Z,10.27
2019-02-20T20:27:29.556Z,10.93
2019-02-20T20:31:12.615Z,10.37
2019-02-20T20:35:10.924Z,10.13
2019-02-20T20:38:27.600Z,7.50
2019-02-20T20:41:58.103Z,6.90
2019-02-20T20:45:33.263Z,7.47
2019-02-20T20:49:25.400Z,6.50
2019-02-20T20:52:50.015Z,6.57
2019-02-20T20:56:57.725Z,6.10
2019-02-20T21:00:44.118Z,8.37
2019-02-20T21:04:21.656Z,8.50
2019-02-20T21:08:09.301Z,9.03
2019-02-20T21:12:13.867Z,10.90
2019-02-20T21:15:53.771Z,8.17
2019-02-20T21:19:26.516Z,8.47
2019-02-20T21:23:21.766Z,7.33
2019-02-20T21:26:52.455Z,9.70
2019-02-20T21:30:25.816Z,8.43
2019-02-20T21:33:48.204Z,8.10
2019-02-20T21:37:30.059Z,7.67
2019-02-20T21:41:01.125Z,7.83
2019-02-20T21:44:43.311Z,9.40
2019-02-20T21:48:35.492Z,8.57
2019-02-20T21:52:26.447Z,8.30
2019-02-20T21:56:10.436Z,8.90
2019-02-20T21:59:42.037Z,8.57
2019-02-20T22:02:58.822Z,9.03
2019-02-20T22:06:27.167Z,8.40
2019-02-20T22:09:57.566Z,7.73
2019-02-20T22:13:20.915Z,7.60
2019-02-20T22:17:25.347Z,8.67
2019-02-20T22:21:08.684Z,7.70
2019-02-20T22:24:31.610Z,8.33
2019-02-20T22:28:17.730Z,7.87
2019-02-20T22:32:07.710Z,8.77
2019-02-20T22:35:48.842Z,12.27
2019-02-20T22:39:40.978Z,10.50
2019-02-20T22:43:25.600Z,10.57
2019-02-20T22:46:48.407Z,11.93
2019-02-20T22:50:25.699Z,12.23
2019-02-20T22:53:55.584Z,12.10
2019-02-20T22:57:37.598Z,12.73
2019-02-20T23:01:38.905Z,12.23
2019-02-20T23:05:37.364Z,12.03
2019-02-20T23:09:14.964Z,10.60
2019-02-20T23:13:19.693Z,11.07
2019-02-20T23:16:24.859Z,12.40
2019-02-20T23:19:30.159Z,12.00
2019-02-20T23:22:35.263Z,11.80
2019-02-20T23:25:40.432Z,11.07
2019-02-20T23:28:46.002Z,11.87
2019-02-20T23:31:51.130Z,11.00
2019-02-20T23:34:56.305Z,11.70
2019-02-20T23:38:01.428Z,11.37
2019-02-20T23:41:07.763Z,11.40
2019-02-20T23:44:12.855Z,11.03
2019-02-20T23:47:18.137Z,11.57
2019-02-20T23:50:23.332Z,11.57
2019-02-20T23:53:28.543Z,10.47
2019-02-20T23:56:33.847Z,10.70
2019-02-20T23:59:39.076Z,10.67
